createdAt,value
2018-04-19T00:06:05.220Z,26.70
2018-04-19T00:08:11.584Z,25.47
2018-04-19T00:10:20.076Z,26.00
2018-04-19T00:12:24.193Z,24.20
2018-04-19T00:14:28.274Z,26.10
2018-04-19T00:16:32.416Z,26.07
2018-04-19T00:18:38.703Z,24.80
2018-04-19T00:20:45.095Z,24.00
2018-04-19T00:22:51.342Z,25.47
2018-04-19T00:24:59.691Z,24.90
2018-04-19T00:27:08.256Z,24.80
2018-04-19T00:29:14.619Z,24.30
2018-04-19T00:31:23.177Z,25.90
2018-04-19T00:33:29.254Z,23.03
2018-04-19T00:35:33.328Z,25.33
2018-04-19T00:37:44.156Z,24.80
2018-04-19T00:39:52.771Z,23.93
2018-04-19T00:41:59.027Z,24.77
2018-04-19T00:44:03.164Z,25.07
2018-04-19T00:46:11.640Z,25.77
2018-04-19T00:48:22.549Z,25.30
2018-04-19T00:50:31.055Z,25.87
2018-04-19T00:52:47.864Z,25.83
2018-04-19T00:54:54.275Z,25.90
2018-04-19T00:56:58.454Z,26.70
2018-04-19T00:59:04.649Z,25.80
2018-04-19T01:01:13.205Z,26.53
2018-04-19T01:03:23.923Z,24.73
2018-04-19T01:05:30.009Z,25.70
2018-04-19T01:07:38.492Z,27.47
2018-04-19T01:09:44.520Z,25.10
2018-04-19T01:11:52.931Z,25.33
2018-04-19T01:13:59.196Z,25.97
2018-04-19T01:16:05.529Z,25.70
2018-04-19T01:18:16.106Z,26.00
2018-04-19T01:20:26.858Z,26.30
2018-04-19T01:22:33.220Z,26.27
2018-04-19T01:24:39.588Z,25.70
2018-04-19T01:26:50.498Z,26.00
2018-04-19T01:28:56.775Z,24.80
2018-04-19T01:31:09.827Z,25.17
2018-04-19T01:33:20.751Z,25.10
2018-04-19T01:35:32.930Z,27.60
2018-04-19T01:37:41.456Z,27.43
2018-04-19T01:39:47.892Z,25.50
2018-04-19T01:41:54.192Z,28.10
2018-04-19T01:44:02.764Z,26.20
2018-04-19T01:46:06.809Z,26.43
2018-04-19T01:48:13.223Z,27.33
2018-04-19T01:50:21.540Z,25.90
2018-04-19T01:52:25.634Z,26.60
2018-04-19T01:54:33.772Z,25.90
2018-04-19T01:56:42.422Z,27.33
2018-04-19T01:58:48.707Z,26.93
2018-04-19T02:00:52.865Z,29.10
2018-04-19T02:02:59.333Z,28.67
2018-04-19T02:05:07.886Z,27.60
2018-04-19T02:07:20.788Z,28.80
2018-04-19T02:09:33.963Z,27.93
2018-04-19T02:11:42.405Z,28.73
2018-04-19T02:13:50.672Z,27.50
2018-04-19T02:15:59.189Z,27.90
2018-04-19T02:18:05.474Z,29.60
2018-04-19T02:20:11.458Z,28.10
2018-04-19T02:22:22.078Z,27.97
2018-04-19T02:24:30.315Z,28.90
2018-04-19T02:26:40.453Z,26.20
2018-04-19T02:28:46.715Z,26.50
2018-04-19T02:30:55.239Z,27.40
2018-04-19T02:32:59.396Z,28.20
2018-04-19T02:35:05.683Z,28.37
2018-04-19T02:37:12.037Z,28.77
2018-04-19T02:39:22.524Z,26.93
2018-04-19T02:41:35.298Z,27.30
2018-04-19T02:43:41.578Z,27.47
2018-04-19T02:45:45.664Z,28.47
2018-04-19T02:47:51.887Z,27.03
2018-04-19T02:49:56.019Z,26.97
2018-04-19T02:52:02.120Z,28.47
2018-04-19T02:54:06.128Z,25.53
2018-04-19T02:56:12.443Z,24.13
2018-04-19T02:58:18.851Z,25.27
2018-04-19T03:00:25.173Z,26.27
2018-04-19T03:02:31.531Z,24.97
2018-04-19T03:04:39.968Z,23.73
2018-04-19T03:06:44.067Z,25.70
2018-04-19T03:08:52.670Z,26.00
2018-04-19T03:10:56.855Z,24.60
2018-04-19T03:13:00.948Z,23.93
2018-04-19T03:15:05.034Z,25.20
2018-04-19T03:17:17.846Z,25.03
2018-04-19T03:19:21.964Z,25.60
2018-04-19T03:21:30.151Z,25.70
2018-04-19T03:23:34.214Z,25.00
2018-04-19T03:25:49.400Z,25.90
2018-04-19T03:27:55.221Z,23.97
2018-04-19T03:30:03.525Z,24.93
2018-04-19T03:32:12.132Z,24.50
2018-04-19T03:34:18.525Z,25.27
2018-04-19T03:36:26.895Z,26.00
2018-04-19T03:38:30.992Z,24.50
2018-04-19T03:40:45.984Z,25.67
2018-04-19T03:42:56.723Z,24.03
2018-04-19T03:45:02.826Z,23.80
2018-04-19T03:47:11.481Z,23.97
2018-04-19T03:49:17.561Z,23.40
2018-04-19T03:51:23.956Z,23.17
2018-04-19T03:53:29.998Z,23.20
2018-04-19T03:55:40.564Z,23.20
2018-04-19T03:57:51.416Z,25.30
2018-04-19T03:59:58.884Z,22.60
2018-04-19T04:02:05.306Z,22.40
2018-04-19T04:04:13.571Z,24.20
2018-04-19T04:06:24.396Z,21.10
2018-04-19T04:08:30.715Z,21.00
2018-04-19T04:10:34.781Z,21.40
2018-04-19T04:12:45.209Z,21.83
2018-04-19T04:14:55.969Z,21.43
2018-04-19T04:17:10.614Z,21.50
2018-04-19T04:19:27.175Z,19.80
2018-04-19T04:21:33.532Z,19.97
2018-04-19T04:23:52.379Z,19.70
2018-04-19T04:25:56.434Z,20.13
2018-04-19T04:28:07.162Z,20.87
2018-04-19T04:30:13.532Z,18.50
2018-04-19T04:32:21.551Z,19.50
2018-04-19T04:34:30.093Z,19.33
2018-04-19T04:36:38.516Z,18.83
2018-04-19T04:38:49.264Z,19.60
2018-04-19T04:40:53.268Z,19.50
2018-04-19T04:42:59.520Z,19.27
2018-04-19T04:45:05.897Z,20.20
2018-04-19T04:47:09.901Z,21.13
2018-04-19T04:49:20.855Z,18.53
2018-04-19T04:51:26.959Z,21.03
2018-04-19T04:53:35.549Z,18.80
2018-04-19T04:55:46.377Z,19.30
2018-04-19T04:57:54.901Z,18.53
2018-04-19T05:00:05.761Z,18.10
2018-04-19T05:02:14.366Z,20.23
2018-04-19T05:04:22.944Z,19.13
2018-04-19T05:06:29.251Z,19.97
2018-04-19T05:08:39.843Z,18.90
2018-04-19T05:10:48.369Z,19.23
2018-04-19T05:12:56.788Z,18.60
2018-04-19T05:15:07.388Z,17.17
2018-04-19T05:17:13.754Z,17.90
2018-04-19T05:19:22.234Z,18.70
2018-04-19T05:21:26.368Z,17.93
2018-04-19T05:23:34.901Z,18.37
2018-04-19T05:25:41.286Z,16.73
2018-04-19T05:27:49.571Z,16.77
2018-04-19T05:29:58.140Z,15.63
2018-04-19T05:32:11.170Z,15.57
2018-04-19T05:34:21.924Z,14.67
2018-04-19T05:36:34.702Z,13.30
2018-04-19T05:38:38.804Z,11.40
2018-04-19T05:40:42.976Z,9.10
2018-04-19T05:42:51.555Z,9.63
2018-04-19T05:45:02.357Z,8.20
2018-04-19T05:47:06.423Z,6.70
2018-04-19T05:49:14.996Z,7.53
2018-04-19T05:51:19.054Z,6.63
2018-04-19T05:53:25.335Z,6.50
2018-04-19T05:55:33.997Z,6.70
2018-04-19T05:57:46.728Z,6.33
2018-04-19T05:59:59.497Z,6.50
2018-04-19T06:02:07.963Z,6.37
2018-04-19T06:04:18.796Z,6.80
2018-04-19T06:06:25.102Z,6.50
2018-04-19T06:08:31.497Z,6.30
2018-04-19T06:10:46.783Z,6.20
2018-04-19T06:12:57.193Z,6.00
2018-04-19T06:15:01.223Z,5.70
2018-04-19T06:17:05.281Z,5.53
2018-04-19T06:19:09.365Z,5.90
2018-04-19T06:21:13.444Z,5.27
2018-04-19T06:23:17.471Z,5.20
2018-04-19T06:25:28.377Z,5.00
2018-04-19T06:27:32.480Z,5.07
2018-04-19T06:29:45.333Z,5.20
2018-04-19T06:31:49.399Z,4.70
2018-04-19T06:33:57.893Z,5.17
2018-04-19T06:36:05.160Z,4.37
2018-04-19T06:38:15.955Z,4.70
2018-04-19T06:40:22.275Z,4.87
2018-04-19T06:42:30.846Z,4.80
2018-04-19T06:44:39.212Z,4.67
2018-04-19T06:46:43.436Z,4.20
2018-04-19T06:48:50.378Z,4.90
2018-04-19T06:50:56.695Z,4.00
2018-04-19T06:53:05.266Z,4.00
2018-04-19T06:55:13.867Z,4.20
2018-04-19T06:57:24.649Z,4.30
2018-04-19T06:59:33.231Z,4.30
2018-04-19T07:01:39.545Z,4.20
2018-04-19T07:03:48.149Z,4.20
2018-04-19T07:05:54.498Z,4.13
2018-04-19T07:08:00.805Z,4.40
2018-04-19T07:10:09.245Z,4.22
2018-04-19T07:12:15.554Z,4.10
2018-04-19T07:14:19.574Z,4.30
2018-04-19T07:16:23.587Z,3.67
2018-04-19T07:18:27.647Z,3.40
2018-04-19T07:20:31.683Z,3.97
2018-04-19T07:22:35.774Z,3.75
2018-04-19T07:24:39.820Z,3.45
2018-04-19T07:26:43.857Z,3.65
2018-04-19T07:28:47.857Z,3.50
2018-04-19T07:30:51.926Z,4.30
2018-04-19T07:32:55.936Z,3.75
2018-04-19T07:34:59.951Z,4.07
2018-04-19T07:37:04.041Z,4.00
2018-04-19T07:39:08.089Z,3.60
2018-04-19T07:41:12.072Z,3.60
2018-04-19T07:43:16.129Z,4.25
2018-04-19T07:45:20.191Z,3.50
2018-04-19T07:47:24.203Z,3.42
2018-04-19T07:49:28.271Z,3.80
2018-04-19T07:51:32.359Z,3.70
2018-04-19T07:53:36.334Z,3.90
2018-04-19T07:55:40.357Z,3.45
2018-04-19T07:57:44.427Z,3.92
2018-04-19T07:59:48.449Z,3.70
2018-04-19T08:01:52.480Z,3.78
2018-04-19T08:03:56.523Z,4.05
2018-04-19T08:06:00.581Z,4.10
2018-04-19T08:08:04.574Z,3.47
2018-04-19T08:10:08.572Z,4.07
2018-04-19T08:12:12.639Z,4.07
2018-04-19T08:14:16.676Z,3.63
2018-04-19T08:16:20.716Z,4.05
2018-04-19T08:18:24.735Z,3.70
2018-04-19T08:20:28.732Z,4.20
2018-04-19T08:22:32.757Z,4.40
2018-04-19T08:24:36.801Z,4.60
2018-04-19T08:26:40.846Z,5.00
2018-04-19T08:28:44.886Z,4.68
2018-04-19T08:30:48.956Z,4.60
2018-04-19T08:32:52.990Z,4.10
2018-04-19T08:34:57.014Z,4.53
2018-04-19T08:37:01.080Z,5.00
2018-04-19T08:39:05.116Z,4.78
2018-04-19T08:41:09.127Z,4.10
2018-04-19T08:43:13.152Z,4.00
2018-04-19T08:45:17.176Z,4.70
2018-04-19T08:47:21.221Z,4.03
2018-04-19T08:49:25.241Z,3.90
2018-04-19T08:51:29.283Z,3.78
2018-04-19T08:53:33.338Z,4.75
2018-04-19T08:55:37.368Z,3.90
2018-04-19T08:57:41.372Z,4.20
2018-04-19T08:59:45.441Z,3.50
2018-04-19T09:01:49.439Z,3.60
2018-04-19T09:03:53.493Z,3.67
2018-04-19T09:05:57.500Z,3.25
2018-04-19T09:08:01.535Z,3.35
2018-04-19T09:10:05.622Z,4.05
2018-04-19T09:12:09.640Z,3.80
2018-04-19T09:14:13.648Z,3.50
2018-04-19T09:16:17.688Z,3.05
2018-04-19T09:18:21.725Z,3.12
2018-04-19T09:20:25.900Z,3.50
2018-04-19T09:22:29.955Z,3.78
2018-04-19T09:24:33.981Z,4.05
2018-04-19T09:26:38.019Z,3.70
2018-04-19T09:28:42.069Z,3.00
2018-04-19T09:30:46.074Z,3.70
2018-04-19T09:32:50.132Z,3.15
2018-04-19T09:34:54.170Z,3.55
2018-04-19T09:36:58.219Z,3.05
2018-04-19T09:39:02.269Z,3.05
2018-04-19T09:41:06.289Z,3.37
2018-04-19T09:43:10.321Z,2.85
2018-04-19T09:45:14.398Z,2.87
2018-04-19T09:47:18.420Z,3.60
2018-04-19T09:49:22.429Z,3.00
2018-04-19T09:51:26.460Z,2.90
2018-04-19T09:53:30.494Z,2.92
2018-04-19T09:55:34.508Z,3.15
2018-04-19T09:57:38.591Z,2.40
2018-04-19T09:59:42.643Z,2.70
2018-04-19T10:01:52.353Z,2.70
2018-04-19T10:03:56.415Z,2.85
2018-04-19T10:06:00.420Z,2.55
2018-04-19T10:08:04.442Z,2.72
2018-04-19T10:10:08.481Z,2.97
2018-04-19T10:12:12.514Z,3.40
2018-04-19T10:14:16.550Z,3.42
2018-04-19T10:16:20.570Z,2.70
2018-04-19T10:18:24.585Z,3.28
2018-04-19T10:20:28.628Z,3.10
2018-04-19T10:22:32.647Z,3.03
2018-04-19T10:24:36.663Z,2.92
2018-04-19T10:26:40.681Z,3.00
2018-04-19T10:28:44.726Z,3.00
2018-04-19T10:30:48.798Z,2.83
2018-04-19T10:32:52.815Z,3.70
2018-04-19T10:34:56.815Z,3.00
2018-04-19T10:37:00.866Z,3.35
2018-04-19T10:39:04.899Z,3.17
2018-04-19T10:41:08.915Z,2.97
2018-04-19T10:43:13.027Z,3.50
2018-04-19T10:45:17.094Z,2.53
2018-04-19T10:47:21.120Z,2.70
2018-04-19T10:49:25.164Z,3.20
2018-04-19T10:51:29.179Z,3.00
2018-04-19T10:53:33.227Z,3.70
2018-04-19T10:55:37.242Z,3.40
2018-04-19T10:57:41.256Z,3.20
2018-04-19T10:59:45.301Z,3.50
2018-04-19T11:01:49.320Z,3.25
2018-04-19T11:03:53.342Z,3.67
2018-04-19T11:05:57.390Z,3.60
2018-04-19T11:08:01.414Z,3.80
2018-04-19T11:10:05.438Z,3.30
2018-04-19T11:12:09.522Z,4.00
2018-04-19T11:14:13.533Z,3.70
2018-04-19T11:16:17.544Z,4.50
2018-04-19T11:18:21.582Z,4.33
2018-04-19T11:20:25.609Z,3.43
2018-04-19T11:22:29.670Z,4.50
2018-04-19T11:24:33.705Z,3.50
2018-04-19T11:26:37.717Z,4.17
2018-04-19T11:28:41.757Z,4.23
2018-04-19T11:30:45.873Z,3.97
2018-04-19T11:32:49.904Z,3.57
2018-04-19T11:34:53.917Z,4.30
2018-04-19T11:36:57.956Z,3.20
2018-04-19T11:39:01.962Z,3.30
2018-04-19T11:41:05.983Z,3.60
2018-04-19T11:43:10.020Z,3.43
2018-04-19T11:45:14.053Z,3.57
2018-04-19T11:47:18.086Z,3.83
2018-04-19T11:49:22.146Z,4.10
2018-04-19T11:51:26.174Z,2.87
2018-04-19T11:53:30.176Z,3.30
2018-04-19T11:55:34.237Z,3.77
2018-04-19T11:57:38.275Z,3.43
2018-04-19T11:59:42.347Z,3.20
2018-04-19T12:01:46.385Z,3.63
2018-04-19T12:03:50.416Z,4.60
2018-04-19T12:05:54.477Z,3.67
2018-04-19T12:07:58.657Z,3.30
2018-04-19T12:10:02.674Z,3.50
2018-04-19T12:12:06.724Z,2.90
2018-04-19T12:14:10.876Z,3.60
2018-04-19T12:16:14.916Z,36.13
2018-04-19T12:18:18.996Z,3.40
2018-04-19T12:20:23.041Z,3.97
2018-04-19T12:22:27.097Z,3.40
2018-04-19T12:24:31.161Z,3.80
2018-04-19T12:26:35.186Z,3.60
2018-04-19T12:28:39.216Z,3.20
2018-04-19T12:30:43.215Z,3.43
2018-04-19T12:32:47.277Z,3.30
2018-04-19T12:34:51.340Z,3.47
2018-04-19T12:36:55.382Z,3.53
2018-04-19T12:39:03.427Z,2.97
2018-04-19T12:41:07.851Z,3.83
2018-04-19T12:43:11.879Z,3.80
2018-04-19T12:45:15.909Z,3.97
2018-04-19T12:47:19.911Z,3.80
2018-04-19T12:49:23.919Z,3.70
2018-04-19T12:51:27.964Z,3.23
2018-04-19T12:53:31.976Z,3.60
2018-04-19T12:55:36.003Z,3.73
2018-04-19T12:57:40.048Z,3.10
2018-04-19T12:59:44.078Z,2.80
2018-04-19T13:01:48.138Z,3.00
2018-04-19T13:03:52.152Z,3.20
2018-04-19T13:05:56.156Z,3.17
2018-04-19T13:08:00.214Z,2.90
2018-04-19T13:10:04.336Z,3.00
2018-04-19T13:12:08.390Z,3.10
2018-04-19T13:14:12.442Z,3.13
2018-04-19T13:16:17.878Z,2.90
2018-04-19T13:18:22.045Z,3.80
2018-04-19T13:20:26.092Z,2.73
2018-04-19T13:22:30.235Z,2.73
2018-04-19T13:24:34.272Z,3.13
2018-04-19T13:26:38.348Z,3.50
2018-04-19T13:28:42.402Z,3.30
2018-04-19T13:30:46.445Z,3.43
2018-04-19T13:32:50.974Z,3.00
2018-04-19T13:34:55.055Z,3.53
2018-04-19T13:36:59.111Z,3.43
2018-04-19T13:39:03.177Z,2.57
2018-04-19T13:41:07.231Z,2.63
2018-04-19T13:43:11.293Z,2.77
2018-04-19T13:45:15.317Z,3.40
2018-04-19T13:47:19.323Z,4.30
2018-04-19T13:49:23.367Z,3.57
2018-04-19T13:51:27.405Z,2.70
2018-04-19T13:53:31.418Z,2.73
2018-04-19T13:55:35.461Z,2.93
2018-04-19T13:57:39.483Z,3.50
2018-04-19T13:59:43.508Z,3.13
2018-04-19T14:01:47.738Z,2.83
2018-04-19T14:03:51.879Z,2.87
2018-04-19T14:05:56.028Z,3.20
2018-04-19T14:08:00.064Z,2.93
2018-04-19T14:10:04.101Z,3.03
2018-04-19T14:12:08.232Z,2.70
2018-04-19T14:14:12.287Z,3.20
2018-04-19T14:16:16.296Z,2.97
2018-04-19T14:18:20.312Z,3.40
2018-04-19T14:20:24.352Z,3.60
2018-04-19T14:22:28.457Z,3.00
2018-04-19T14:24:32.605Z,3.30
2018-04-19T14:26:36.668Z,3.07
2018-04-19T14:28:43.039Z,3.33
2018-04-19T14:30:47.281Z,2.70
2018-04-19T14:32:51.319Z,3.23
2018-04-19T14:34:55.349Z,2.70
2018-04-19T14:36:59.408Z,2.80
2018-04-19T14:39:03.432Z,2.50
2018-04-19T14:41:07.976Z,2.50
2018-04-19T14:43:12.114Z,2.43
2018-04-19T14:45:16.231Z,2.73
2018-04-19T14:47:20.461Z,2.83
2018-04-19T14:49:24.526Z,2.10
2018-04-19T14:51:28.556Z,2.23
2018-04-19T14:53:32.563Z,2.40
2018-04-19T14:55:36.640Z,2.57
2018-04-19T14:57:40.742Z,2.30
2018-04-19T14:59:44.783Z,2.00
2018-04-19T15:01:50.051Z,2.40
2018-04-19T15:03:54.133Z,2.20
2018-04-19T15:05:58.146Z,1.93
2018-04-19T15:08:02.185Z,2.20
2018-04-19T15:10:06.231Z,2.17
2018-04-19T15:12:10.246Z,1.93
2018-04-19T15:14:14.301Z,2.00
2018-04-19T15:16:18.345Z,2.30
2018-04-19T15:18:22.419Z,2.40
2018-04-19T15:20:26.498Z,2.20
2018-04-19T15:22:31.183Z,2.47
2018-04-19T15:24:35.329Z,2.80
2018-04-19T15:26:39.373Z,2.60
2018-04-19T15:28:43.457Z,2.70
2018-04-19T15:30:47.550Z,2.23
2018-04-19T15:32:51.577Z,2.20
2018-04-19T15:34:55.606Z,2.73
2018-04-19T15:37:00.090Z,31.10
2018-04-19T15:39:04.147Z,3.57
2018-04-19T15:41:08.247Z,2.50
2018-04-19T15:43:12.315Z,4.90
2018-04-19T15:45:16.439Z,2.70
2018-04-19T15:47:20.472Z,4.20
2018-04-19T15:49:24.547Z,7.73
2018-04-19T15:51:28.610Z,2.60
2018-04-19T15:53:32.611Z,4.83
2018-04-19T15:55:36.700Z,2.70
2018-04-19T15:57:40.752Z,3.13
2018-04-19T15:59:44.776Z,2.83
2018-04-19T16:01:48.786Z,2.60
2018-04-19T16:03:52.832Z,3.03
2018-04-19T16:05:56.841Z,2.93
2018-04-19T16:08:00.860Z,3.50
2018-04-19T16:10:04.967Z,3.70
2018-04-19T16:12:09.011Z,2.70
2018-04-19T16:14:13.179Z,3.63
2018-04-19T16:16:17.381Z,5.00
2018-04-19T16:18:21.517Z,3.30
2018-04-19T16:20:25.582Z,3.07
2018-04-19T16:22:29.659Z,3.20
2018-04-19T16:24:33.686Z,13.13
2018-04-19T16:26:37.752Z,3.00
2018-04-19T16:28:48.617Z,2.80
2018-04-19T16:30:45.857Z,3.43
2018-04-19T16:32:49.921Z,3.50
2018-04-19T16:34:53.925Z,3.00
2018-04-19T16:36:57.986Z,2.70
2018-04-19T16:39:02.058Z,2.93
2018-04-19T16:41:06.090Z,2.87
2018-04-19T16:43:10.144Z,2.97
2018-04-19T16:45:14.144Z,3.00
2018-04-19T16:47:18.205Z,3.20
2018-04-19T16:49:22.237Z,3.03
2018-04-19T16:51:26.423Z,4.30
2018-04-19T16:53:30.452Z,3.20
2018-04-19T16:55:34.485Z,2.87
2018-04-19T16:57:38.644Z,3.50
2018-04-19T16:59:42.671Z,3.37
2018-04-19T17:01:46.705Z,3.73
2018-04-19T17:03:50.720Z,2.80
2018-04-19T17:05:54.842Z,3.47
2018-04-19T17:07:58.877Z,3.50
2018-04-19T17:10:02.898Z,3.10
2018-04-19T17:12:06.949Z,2.50
2018-04-19T17:14:11.123Z,3.20
2018-04-19T17:16:15.151Z,3.60
2018-04-19T17:18:19.303Z,3.17
2018-04-19T17:20:23.310Z,2.80
2018-04-19T17:22:27.307Z,3.60
2018-04-19T17:24:31.348Z,2.87
2018-04-19T17:26:35.368Z,3.50
2018-04-19T17:28:39.440Z,3.33
2018-04-19T17:30:43.578Z,3.67
2018-04-19T17:32:47.711Z,3.30
2018-04-19T17:34:51.732Z,3.20
2018-04-19T17:36:56.220Z,3.30
2018-04-19T17:39:00.435Z,2.70
2018-04-19T17:41:04.515Z,3.00
2018-04-19T17:43:08.744Z,3.27
2018-04-19T17:45:12.766Z,3.23
2018-04-19T17:47:16.906Z,3.20
2018-04-19T17:49:20.960Z,3.40
2018-04-19T17:51:25.016Z,3.10
2018-04-19T17:53:29.150Z,3.33
2018-04-19T17:55:33.219Z,3.00
2018-04-19T17:57:40.190Z,3.30
2018-04-19T17:59:44.356Z,3.30
2018-04-19T18:01:48.397Z,3.17
2018-04-19T18:03:52.686Z,3.13
2018-04-19T18:05:56.781Z,2.67
2018-04-19T18:08:00.824Z,3.40
2018-04-19T18:10:04.831Z,3.43
2018-04-19T18:12:08.871Z,3.03
2018-04-19T18:14:12.928Z,3.50
2018-04-19T18:16:16.966Z,3.63
2018-04-19T18:18:21.043Z,3.20
2018-04-19T18:20:25.059Z,3.60
2018-04-19T18:22:29.067Z,3.60
2018-04-19T18:24:33.143Z,4.40
2018-04-19T18:26:37.367Z,5.70
2018-04-19T18:28:41.437Z,4.90
2018-04-19T18:30:45.833Z,8.20
2018-04-19T18:32:49.905Z,4.40
2018-04-19T18:34:54.055Z,4.30
2018-04-19T18:36:58.413Z,4.10
2018-04-19T18:39:02.509Z,3.93
2018-04-19T18:41:06.606Z,4.20
2018-04-19T18:43:10.641Z,5.00
2018-04-19T18:45:14.789Z,4.20
2018-04-19T18:47:18.838Z,4.37
2018-04-19T18:49:22.834Z,5.13
2018-04-19T18:51:26.885Z,4.70
2018-04-19T18:53:31.078Z,21.60
2018-04-19T18:55:35.133Z,11.37
2018-04-19T18:57:39.226Z,7.30
2018-04-19T18:59:43.265Z,5.20
2018-04-19T19:01:47.312Z,4.47
2018-04-19T19:03:51.443Z,4.10
2018-04-19T19:05:55.803Z,4.93
2018-04-19T19:07:59.963Z,4.80
2018-04-19T19:10:04.396Z,5.13
2018-04-19T19:12:08.479Z,4.60
2018-04-19T19:14:17.223Z,4.97
2018-04-19T19:16:25.926Z,5.80
2018-04-19T19:18:36.053Z,6.43
2018-04-19T19:20:40.057Z,5.53
2018-04-19T19:22:44.108Z,4.93
2018-04-19T19:24:48.170Z,6.00
2018-04-19T19:26:52.233Z,6.30
2018-04-19T19:28:56.306Z,6.20
2018-04-19T19:31:00.338Z,7.03
2018-04-19T19:33:04.412Z,6.47
2018-04-19T19:35:08.530Z,6.40
2018-04-19T19:37:12.839Z,6.40
2018-04-19T19:39:16.889Z,6.27
2018-04-19T19:41:21.014Z,6.20
2018-04-19T19:43:25.018Z,6.60
2018-04-19T19:45:29.160Z,5.80
2018-04-19T19:47:33.255Z,6.60
2018-04-19T19:49:37.317Z,7.27
2018-04-19T19:51:41.362Z,6.93
2018-04-19T19:53:46.683Z,7.80
2018-04-19T19:55:50.857Z,8.10
2018-04-19T19:57:55.069Z,7.00
2018-04-19T19:59:59.109Z,8.50
2018-04-19T20:02:03.267Z,7.70
2018-04-19T20:04:07.487Z,6.93
2018-04-19T20:06:11.664Z,6.17
2018-04-19T20:08:15.743Z,7.77
2018-04-19T20:10:19.846Z,7.07
2018-04-19T20:12:23.897Z,6.23
2018-04-19T20:14:27.938Z,6.17
2018-04-19T20:16:32.044Z,6.77
2018-04-19T20:18:36.104Z,6.10
2018-04-19T20:20:40.233Z,5.93
2018-04-19T20:22:44.255Z,5.90
2018-04-19T20:24:48.315Z,6.50
2018-04-19T20:26:52.345Z,5.83
2018-04-19T20:28:56.359Z,5.93
2018-04-19T20:31:01.612Z,5.50
2018-04-19T20:33:05.625Z,5.60
2018-04-19T20:35:09.824Z,4.90
2018-04-19T20:37:13.915Z,5.30
2018-04-19T20:39:17.959Z,5.50
2018-04-19T20:41:22.003Z,5.50
2018-04-19T20:43:26.068Z,6.27
2018-04-19T20:45:30.467Z,5.10
2018-04-19T20:47:34.472Z,5.33
2018-04-19T20:49:38.494Z,5.97
2018-04-19T20:51:42.501Z,5.83
2018-04-19T20:53:46.573Z,6.30
2018-04-19T20:55:50.603Z,5.70
2018-04-19T20:57:54.615Z,6.27
2018-04-19T20:59:58.669Z,6.37
2018-04-19T21:02:02.724Z,6.07
2018-04-19T21:04:06.780Z,6.03
2018-04-19T21:06:10.848Z,5.47
2018-04-19T21:08:14.872Z,5.50
2018-04-19T21:10:18.897Z,5.00
2018-04-19T21:12:23.186Z,5.47
2018-04-19T21:14:27.222Z,6.03
2018-04-19T21:16:31.367Z,5.70
2018-04-19T21:18:35.471Z,4.67
2018-04-19T21:20:39.493Z,5.30
2018-04-19T21:22:43.542Z,6.03
2018-04-19T21:24:47.563Z,5.63
2018-04-19T21:26:51.589Z,6.33
2018-04-19T21:28:55.620Z,5.77
2018-04-19T21:30:59.700Z,5.50
2018-04-19T21:33:03.736Z,5.77
2018-04-19T21:35:07.837Z,6.33
2018-04-19T21:37:11.864Z,6.10
2018-04-19T21:39:15.893Z,5.93
2018-04-19T21:41:19.933Z,6.40
2018-04-19T21:43:23.959Z,6.20
2018-04-19T21:45:27.971Z,6.33
2018-04-19T21:47:32.016Z,7.10
2018-04-19T21:49:36.038Z,6.60
2018-04-19T21:51:40.046Z,6.57
2018-04-19T21:53:44.079Z,6.70
2018-04-19T21:55:48.117Z,6.23
2018-04-19T21:57:52.177Z,6.90
2018-04-19T21:59:56.243Z,7.87
2018-04-19T22:02:00.418Z,6.97
2018-04-19T22:04:04.436Z,6.80
2018-04-19T22:06:08.487Z,6.90
2018-04-19T22:08:12.496Z,7.20
2018-04-19T22:10:16.516Z,5.97
2018-04-19T22:12:20.768Z,7.20
2018-04-19T22:14:24.783Z,7.50
2018-04-19T22:16:28.808Z,7.63
2018-04-19T22:18:32.903Z,7.60
2018-04-19T22:20:36.906Z,7.40
2018-04-19T22:22:40.936Z,6.67
2018-04-19T22:24:44.970Z,6.80
2018-04-19T22:26:48.985Z,7.73
2018-04-19T22:28:53.067Z,7.00
2018-04-19T22:30:57.099Z,6.60
2018-04-19T22:33:01.140Z,7.10
2018-04-19T22:35:05.262Z,7.70
2018-04-19T22:37:09.310Z,7.00
2018-04-19T22:39:13.354Z,7.70
2018-04-19T22:41:17.455Z,8.03
2018-04-19T22:43:21.521Z,7.30
2018-04-19T22:45:25.550Z,9.50
2018-04-19T22:47:29.607Z,7.40
2018-04-19T22:49:33.682Z,8.10
2018-04-19T22:51:37.813Z,7.23
2018-04-19T22:53:45.305Z,8.20
2018-04-19T22:55:51.659Z,8.07
2018-04-19T22:57:55.735Z,8.53
2018-04-19T23:00:03.973Z,7.43
2018-04-19T23:02:10.155Z,8.50
2018-04-19T23:04:14.191Z,8.00
2018-04-19T23:06:18.194Z,8.60
2018-04-19T23:08:22.287Z,8.47
2018-04-19T23:10:30.585Z,8.50
2018-04-19T23:12:34.864Z,9.50
2018-04-19T23:14:41.142Z,8.20
2018-04-19T23:16:45.152Z,8.20
2018-04-19T23:18:51.569Z,8.87
2018-04-19T23:20:55.642Z,8.50
2018-04-19T23:22:59.714Z,8.90
2018-04-19T23:25:06.025Z,8.83
2018-04-19T23:27:10.133Z,9.00
2018-04-19T23:29:18.699Z,9.20
2018-04-19T23:31:31.388Z,9.40
2018-04-19T23:33:39.628Z,9.17
2018-04-19T23:35:45.944Z,8.93
2018-04-19T23:37:56.756Z,8.33
2018-04-19T23:40:02.817Z,9.20
2018-04-19T23:42:09.135Z,9.23
2018-04-19T23:44:15.490Z,8.70
2018-04-19T23:46:21.689Z,8.47
2018-04-19T23:48:25.846Z,8.63
2018-04-19T23:50:34.405Z,9.20
2018-04-19T23:52:38.449Z,9.00
2018-04-19T23:54:44.791Z,8.60
2018-04-19T23:56:53.434Z,8.80
2018-04-19T23:58:59.745Z,8.60
